M I D A S
Marine Information and Data Acquisition System
Tripno 1695 of the Zeeleeuw from 2009-05-18 15:11:23 to 2009-05-19 10:30:27
Back to CruiseResearch ActivitiesStationsMapUnderway DataData graphs

EquipmentUnitsComment
TimeDGPSUTC
LatitudeDGPSDM.mWGS84
LongitudeDGPSDM.mWGS84
HeadingGyrodeg 
SOGDGPSknotsSpeed over ground
COGDGPSdegCourse over ground
DepthEcho soundermeters200 kHz
Missing or incorrect values are displayed as -999
Navigation data collected by the RV Zeeleeuw from 2009-05-18 15:14:39 to 2009-05-20 09:16:23
                                                                                    Next 1000 lines
Time Latitude Longitude Heading SOG COG Depth
2009-05-18 15:14:49 51°13.663 2°55.956 112.5 0.9 293 5.5
2009-05-18 15:14:54 51°13.664 2°55.953 112.5 1.3 295 5.6
2009-05-18 15:14:59 51°13.665 2°55.95 112.5 1.8 294 5.6
2009-05-18 15:15:05 51°13.666 2°55.944 112.6 2.2 295 -999
2009-05-18 15:15:10 51°13.668 2°55.94 112.6 2.3 294 -999
2009-05-18 15:15:16 51°13.669 2°55.934 112.3 2.5 294 -999
2009-05-18 15:15:22 51°13.671 2°55.927 111.5 2.7 293 -999
2009-05-18 15:15:28 51°13.673 2°55.92 110.4 2.9 291 -999
2009-05-18 15:15:33 51°13.674 2°55.914 109 3 290 -999
2009-05-18 15:15:38 51°13.675 2°55.907 107.5 3 286 -999
2009-05-18 15:15:43 51°13.677 2°55.901 106.1 3.1 288 -999
2009-05-18 15:15:48 51°13.678 2°55.894 105.5 3.1 285 -999
2009-05-18 15:15:53 51°13.679 2°55.887 105.3 3.1 286 -999
2009-05-18 15:15:58 51°13.68 2°55.881 105.2 3.1 284 -999
2009-05-18 15:16:03 51°13.681 2°55.874 105.3 3.1 285 -999
2009-05-18 15:16:08 51°13.682 2°55.868 105.5 3.1 284 -999
2009-05-18 15:16:13 51°13.683 2°55.861 105.5 3.1 285 -999
2009-05-18 15:16:18 51°13.684 2°55.854 105.5 3.2 283 -999
2009-05-18 15:16:23 51°13.685 2°55.847 105.5 3.2 285 -999
2009-05-18 15:16:28 51°13.686 2°55.841 104.8 3.1 283 -999
2009-05-18 15:16:33 51°13.687 2°55.834 104.5 3.1 284 -999
2009-05-18 15:16:38 51°13.688 2°55.827 103.9 3.2 283 -999
2009-05-18 15:16:43 51°13.689 2°55.82 103.4 3.3 283 -999
2009-05-18 15:16:48 51°13.69 2°55.812 103 3.4 283 -999
2009-05-18 15:16:53 51°13.692 2°55.805 102.3 3.5 283 -999
2009-05-18 15:16:58 51°13.693 2°55.798 101.6 3.3 283 -999
2009-05-18 15:17:03 51°13.694 2°55.791 100.8 3.2 282 -999
2009-05-18 15:17:08 51°13.695 2°55.784 100 3.2 282 -999
2009-05-18 15:17:13 51°13.695 2°55.777 99.2 3 281 -999
2009-05-18 15:17:18 51°13.696 2°55.771 98.3 2.9 282 -999
2009-05-18 15:17:23 51°13.697 2°55.766 97.7 2.6 282 -999
2009-05-18 15:17:28 51°13.698 2°55.762 96.8 1.9 285 -999
2009-05-18 15:17:33 51°13.698 2°55.76 94.2 1 283 -999
2009-05-18 15:17:38 51°13.698 2°55.758 88.5 0.9 298 -999
2009-05-18 15:17:43 51°13.699 2°55.757 83.9 0.6 292 12.5
2009-05-18 15:17:48 51°13.699 2°55.756 79.8 0.6 321 12.6
2009-05-18 15:17:52 51°13.7 2°55.756 75.6 0.3 348 12.5
2009-05-18 15:17:57 51°13.7 2°55.756 70.6 0.6 6 12.4
2009-05-18 15:18:03 51°13.701 2°55.757 66.5 0.7 29 12.5
2009-05-18 15:18:07 51°13.702 2°55.758 60.3 0.9 24 12.6
2009-05-18 15:18:12 51°13.703 2°55.759 56 0.9 31 12.7
2009-05-18 15:18:17 51°13.704 2°55.76 49.9 0.9 24 12.9
2009-05-18 15:18:22 51°13.706 2°55.761 46.1 0.9 25 12.9
2009-05-18 15:18:27 51°13.707 2°55.761 41.6 0.6 16 13.6
2009-05-18 15:18:32 51°13.707 2°55.761 38.9 0.3 8 13.3
2009-05-18 15:18:37 51°13.707 2°55.76 36.2 0.3 264 12.9
2009-05-18 15:18:42 51°13.706 2°55.759 33.8 0.5 224 12.9
2009-05-18 15:18:47 51°13.705 2°55.758 30.6 0.8 221 12.9
2009-05-18 15:18:51 51°13.704 2°55.757 28.3 0.9 214 12.9
2009-05-18 15:18:56 51°13.703 2°55.756 26.7 0.9 216 12.8
2009-05-18 15:19:01 51°13.702 2°55.755 24.9 0.8 216 12.6
2009-05-18 15:19:06 51°13.701 2°55.754 23.4 0.8 217 12.5
2009-05-18 15:19:11 51°13.701 2°55.753 22.6 0.7 221 12.5
2009-05-18 15:19:16 51°13.701 2°55.752 22 0.3 279 4.6
2009-05-18 15:19:21 51°13.702 2°55.752 21.3 0.6 351 4.5
2009-05-18 15:19:26 51°13.703 2°55.752 17.3 1.2 358 4.8
2009-05-18 15:19:31 51°13.706 2°55.752 11.9 1.6 358 12.5
2009-05-18 15:19:36 51°13.708 2°55.751 5.5 1.9 352 12.8
2009-05-18 15:19:41 51°13.711 2°55.75 0.1 2.2 349 12.7
2009-05-18 15:19:46 51°13.715 2°55.749 353.3 2.6 343 12.6
2009-05-18 15:19:51 51°13.719 2°55.746 347 2.9 339 11.9
2009-05-18 15:19:56 51°13.723 2°55.743 340.8 3.2 335 11.9
2009-05-18 15:20:00 51°13.726 2°55.74 335.7 3.6 330 12
2009-05-18 15:20:05 51°13.731 2°55.735 332.8 3.9 329 11.6
2009-05-18 15:20:10 51°13.736 2°55.73 330.3 4.2 327 11.5
2009-05-18 15:20:15 51°13.741 2°55.725 328.2 4.5 327 11.4
2009-05-18 15:20:20 51°13.747 2°55.719 327.6 4.8 326 10.9
2009-05-18 15:20:25 51°13.753 2°55.713 327.6 5.2 327 10.3
2009-05-18 15:20:30 51°13.759 2°55.707 327.6 5.4 327 9.9
2009-05-18 15:20:35 51°13.766 2°55.7 327.6 5.8 327 9.8
2009-05-18 15:20:39 51°13.772 2°55.694 328 6.1 328 9.8
2009-05-18 15:20:45 51°13.781 2°55.685 328.9 6.5 329 10
2009-05-18 15:20:50 51°13.789 2°55.677 329.6 6.8 329 9.7
2009-05-18 15:20:55 51°13.798 2°55.67 330.3 7 330 10.1
2009-05-18 15:20:59 51°13.805 2°55.663 330.9 7.3 330 10.2
2009-05-18 15:21:04 51°13.814 2°55.655 331.6 7.4 330 10.1
2009-05-18 15:21:09 51°13.823 2°55.647 332.1 7.6 331 10.1
2009-05-18 15:21:14 51°13.832 2°55.638 332.8 7.8 331 10
2009-05-18 15:21:19 51°13.842 2°55.63 333.6 7.9 333 10.2
2009-05-18 15:21:24 51°13.852 2°55.623 334.7 8 334 10.3
2009-05-18 15:21:29 51°13.862 2°55.615 336.6 8.1 335 10.3
2009-05-18 15:21:35 51°13.875 2°55.606 337.3 8.2 335 10.3
2009-05-18 15:21:39 51°13.883 2°55.599 336.9 8.3 334 10.5
2009-05-18 15:21:44 51°13.893 2°55.591 336.1 8.3 334 10.5
2009-05-18 15:21:49 51°13.904 2°55.583 335.9 8.4 335 10.5
2009-05-18 15:21:54 51°13.915 2°55.575 336.2 8.4 335 10.5
2009-05-18 15:21:59 51°13.925 2°55.567 336.8 8.4 336 10.5
2009-05-18 15:22:04 51°13.936 2°55.559 337.2 8.5 336 10.5
2009-05-18 15:22:09 51°13.947 2°55.551 336.3 8.5 334 10.5
2009-05-18 15:22:14 51°13.957 2°55.543 335.6 8.6 334 10.5
2009-05-18 15:22:19 51°13.968 2°55.535 335.5 8.6 334 10.5
2009-05-18 15:22:24 51°13.979 2°55.526 335.3 8.6 333 10.5
2009-05-18 15:22:29 51°13.989 2°55.517 335 8.7 334 10.4
2009-05-18 15:22:34 51°14 2°55.509 335.8 8.7 335 10.4
2009-05-18 15:22:39 51°14.012 2°55.501 337.2 8.8 335 10.4
2009-05-18 15:22:44 51°14.023 2°55.494 338.4 8.8 336 10.4
2009-05-18 15:22:49 51°14.034 2°55.486 338.7 8.8 335 10.4
2009-05-18 15:22:54 51°14.045 2°55.477 337.6 8.9 334 10.4
2009-05-18 15:22:59 51°14.056 2°55.469 337.6 9 336 10.4
2009-05-18 15:23:04 51°14.068 2°55.461 338.8 9.1 336 10.3
2009-05-18 15:23:09 51°14.079 2°55.453 339.4 9.1 337 10.4
2009-05-18 15:23:14 51°14.091 2°55.445 340.2 9.1 337 10.4
2009-05-18 15:23:19 51°14.103 2°55.437 340.3 9.2 337 10.4
2009-05-18 15:23:24 51°14.114 2°55.428 338.5 9.2 334 10.3
2009-05-18 15:23:29 51°14.126 2°55.419 336.9 9.2 335 10.3
2009-05-18 15:23:35 51°14.14 2°55.409 336.8 9.2 335 10.3
2009-05-18 15:23:39 51°14.149 2°55.402 336.9 9.2 334 10.3
2009-05-18 15:23:44 51°14.16 2°55.392 335.7 9.2 331 10.3
2009-05-18 15:23:49 51°14.171 2°55.381 332.6 9.1 328 10.3
2009-05-18 15:23:55 51°14.183 2°55.367 329.1 9.1 325 10.3
2009-05-18 15:23:59 51°14.191 2°55.357 326.3 9.1 323 10.4
2009-05-18 15:24:04 51°14.201 2°55.345 324.7 9.2 322 10.4
2009-05-18 15:24:09 51°14.211 2°55.332 324.3 9.2 322 10.3
2009-05-18 15:24:15 51°14.223 2°55.317 323.9 9.3 321 10.3
2009-05-18 15:24:19 51°14.231 2°55.306 322 9.3 318 10.3
2009-05-18 15:24:23 51°14.238 2°55.295 319.9 9.3 317 10.3
2009-05-18 15:24:29 51°14.249 2°55.277 318.1 9.3 315 10.3
2009-05-18 15:24:35 51°14.26 2°55.259 316.6 9.3 315 10.3
2009-05-18 15:24:39 51°14.267 2°55.247 315.9 9.4 314 10.3
2009-05-18 15:24:44 51°14.276 2°55.232 315.8 9.5 314 10.4
2009-05-18 15:24:49 51°14.286 2°55.217 315.8 9.5 314 10.2
2009-05-18 15:24:55 51°14.297 2°55.199 315.7 9.6 314 10.3
2009-05-18 15:24:59 51°14.304 2°55.186 315.1 9.7 313 10.4
2009-05-18 15:25:04 51°14.313 2°55.17 314 9.7 312 10.3
2009-05-18 15:25:09 51°14.321 2°55.154 313 9.7 311 10.4
2009-05-18 15:25:14 51°14.33 2°55.138 312.2 9.7 310 10.3
2009-05-18 15:25:19 51°14.339 2°55.121 311.3 9.8 309 10.3
2009-05-18 15:25:24 51°14.347 2°55.104 310.5 9.8 309 10.6
2009-05-18 15:25:29 51°14.356 2°55.087 310.3 9.9 310 10.5
2009-05-18 15:25:34 51°14.365 2°55.071 311 9.9 311 10.3
2009-05-18 15:25:39 51°14.374 2°55.055 312.9 9.9 314 10.2
2009-05-18 15:25:44 51°14.384 2°55.04 315.6 9.9 316 10.4
2009-05-18 15:25:48 51°14.392 2°55.028 318 10 318 10.3
2009-05-18 15:25:54 51°14.405 2°55.011 319.6 10.1 319 10.4
2009-05-18 15:25:59 51°14.416 2°54.997 320.9 10.2 321 10.4
2009-05-18 15:26:04 51°14.427 2°54.982 321.8 10.3 321 10.3
2009-05-18 15:26:08 51°14.437 2°54.971 323.4 10.5 323 10.2
2009-05-18 15:26:14 51°14.451 2°54.954 324.6 10.7 323 10.3
2009-05-18 15:26:19 51°14.463 2°54.94 325.4 10.7 324 10.3
2009-05-18 15:26:24 51°14.475 2°54.926 326.4 10.8 325 10.2
2009-05-18 15:26:28 51°14.486 2°54.916 327.4 11 327 10.3
2009-05-18 15:26:34 51°14.501 2°54.9 329.2 11.1 329 10.2
2009-05-18 15:26:39 51°14.515 2°54.889 331.8 11.1 332 10.3
2009-05-18 15:26:44 51°14.529 2°54.878 334.4 11.2 335 10
2009-05-18 15:26:48 51°14.54 2°54.87 337.1 11.3 336 9.9
2009-05-18 15:26:54 51°14.558 2°54.859 339.6 11.3 338 10.1
2009-05-18 15:26:59 51°14.573 2°54.849 341.2 11.4 339 10
2009-05-18 15:27:04 51°14.587 2°54.84 342.1 11.4 338 10
2009-05-18 15:27:09 51°14.603 2°54.832 342.2 11.5 341 9.8
2009-05-18 15:27:14 51°14.618 2°54.824 343.5 11.4 341 9.5
2009-05-18 15:27:19 51°14.633 2°54.815 344 11.5 341 9.7
2009-05-18 15:27:24 51°14.648 2°54.808 344.8 11.5 344 9.8
2009-05-18 15:27:28 51°14.66 2°54.803 346.7 11.6 345 9.9
2009-05-18 15:27:34 51°14.679 2°54.795 347 11.6 345 9.8
2009-05-18 15:27:39 51°14.694 2°54.789 348.4 11.6 346 9.8
2009-05-18 15:27:44 51°14.71 2°54.783 349.8 11.6 347 9.8
2009-05-18 15:27:48 51°14.723 2°54.778 350.7 11.7 349 9.8
2009-05-18 15:27:54 51°14.742 2°54.772 351.8 11.7 347 9.8
2009-05-18 15:27:59 51°14.758 2°54.767 350.6 11.6 349 9.6
2009-05-18 15:28:04 51°14.774 2°54.762 351.5 11.7 349 9.3
2009-05-18 15:28:08 51°14.786 2°54.758 351.7 11.6 349 9.8
2009-05-18 15:28:14 51°14.805 2°54.753 352.3 11.5 351 9.6
2009-05-18 15:28:19 51°14.821 2°54.747 353.3 11.5 348 9.7
2009-05-18 15:28:24 51°14.837 2°54.743 352.8 11.5 350 9.9
2009-05-18 15:28:28 51°14.849 2°54.739 352.6 11.5 348 9.3
2009-05-18 15:28:34 51°14.868 2°54.733 351.9 11.4 349 9.2
2009-05-18 15:28:39 51°14.883 2°54.728 352.2 11.3 349 9.6
2009-05-18 15:28:44 51°14.899 2°54.724 353 11.4 349 9.7
2009-05-18 15:28:48 51°14.911 2°54.72 352.8 11.4 347 9.1
2009-05-18 15:28:54 51°14.93 2°54.714 352.1 11.4 349 9.4
2009-05-18 15:28:59 51°14.945 2°54.708 352.1 11.4 347 9.3
2009-05-18 15:29:04 51°14.961 2°54.704 352.1 11.4 349 9.2
2009-05-18 15:29:08 51°14.973 2°54.699 352.5 11.5 349 9.3
2009-05-18 15:29:14 51°14.992 2°54.694 353.1 11.4 349 9.2
2009-05-18 15:29:19 51°15.007 2°54.689 353.1 11.4 350 9
2009-05-18 15:29:24 51°15.023 2°54.684 353.5 11.5 348 8.6
2009-05-18 15:29:29 51°15.039 2°54.68 353.6 11.4 351 8.6
2009-05-18 15:29:34 51°15.054 2°54.675 353.4 11.5 350 8.9
2009-05-18 15:29:39 51°15.07 2°54.671 353.4 11.3 350 8.7
2009-05-18 15:29:44 51°15.085 2°54.666 353.1 11.4 349 8.4
2009-05-18 15:29:48 51°15.098 2°54.663 353.5 11.4 350 8.3
2009-05-18 15:29:54 51°15.116 2°54.656 352.8 11.3 348 8.2
2009-05-18 15:29:59 51°15.132 2°54.652 353.7 11.4 349 8.3
2009-05-18 15:30:04 51°15.147 2°54.647 352.8 11.4 348 8.2
2009-05-18 15:30:08 51°15.159 2°54.643 353.2 11.5 349 8.4
2009-05-18 15:30:14 51°15.178 2°54.636 352.3 11.4 348 8.2
2009-05-18 15:30:19 51°15.194 2°54.632 352.5 11.4 348 8.5
2009-05-18 15:30:24 51°15.209 2°54.626 352.6 11.5 349 8.6
2009-05-18 15:30:28 51°15.222 2°54.622 352.4 11.5 348 8.7
2009-05-18 15:30:34 51°15.24 2°54.616 351.9 11.5 349 8.5
2009-05-18 15:30:39 51°15.256 2°54.61 352.1 11.5 347 9
2009-05-18 15:30:44 51°15.272 2°54.605 352.3 11.5 348 8.9
2009-05-18 15:30:48 51°15.284 2°54.601 352.3 11.5 347 8.6
2009-05-18 15:30:54 51°15.303 2°54.594 352.5 11.5 349 8.7
2009-05-18 15:30:59 51°15.318 2°54.588 352.1 11.6 347 8.8
2009-05-18 15:31:04 51°15.334 2°54.583 352.1 11.6 348 8.6
2009-05-18 15:31:09 51°15.349 2°54.578 352.1 11.5 348 9
2009-05-18 15:31:14 51°15.365 2°54.573 353.2 11.5 348 9.3
2009-05-18 15:31:19 51°15.381 2°54.568 351.4 11.6 349 9.6
2009-05-18 15:31:24 51°15.396 2°54.561 350.8 11.5 345 9.2
2009-05-18 15:31:28 51°15.409 2°54.557 351.4 11.5 347 9.2
2009-05-18 15:31:34 51°15.427 2°54.549 350.5 11.5 345 9.4
2009-05-18 15:31:39 51°15.443 2°54.543 349.5 11.6 348 9.3
2009-05-18 15:31:44 51°15.458 2°54.536 349.7 11.6 342 9.3
2009-05-18 15:31:48 51°15.471 2°54.531 349.7 11.5 348 9.6
2009-05-18 15:31:54 51°15.489 2°54.522 348.6 11.6 340 9.4
2009-05-18 15:31:59 51°15.504 2°54.517 348.9 11.5 347 9.6
2009-05-18 15:32:04 51°15.519 2°54.508 348.1 11.5 342 9.8
2009-05-18 15:32:08 51°15.532 2°54.504 348 11.5 345 9.9
2009-05-18 15:32:14 51°15.55 2°54.494 347.8 11.6 341 9.5
2009-05-18 15:32:19 51°15.566 2°54.488 347.1 11.6 344 9.7
2009-05-18 15:32:24 51°15.581 2°54.479 347.1 11.6 342 9.7
2009-05-18 15:32:28 51°15.593 2°54.474 346.8 11.6 343 9.9
2009-05-18 15:32:34 51°15.612 2°54.464 347 11.6 342 9.7
2009-05-18 15:32:39 51°15.627 2°54.457 346.6 11.6 342 10.2
2009-05-18 15:32:44 51°15.642 2°54.449 346.7 11.6 343 9.7
2009-05-18 15:32:48 51°15.654 2°54.443 347 11.6 342 9.9
2009-05-18 15:32:54 51°15.673 2°54.434 347 11.6 343 10.3
2009-05-18 15:32:59 51°15.688 2°54.426 346.3 11.5 342 10
2009-05-18 15:33:04 51°15.703 2°54.419 347.4 11.6 344 10.3
2009-05-18 15:33:08 51°15.715 2°54.411 346.1 11.5 340 10.3
2009-05-18 15:33:14 51°15.734 2°54.402 345.1 11.5 342 10.5
2009-05-18 15:33:19 51°15.749 2°54.394 346.2 11.6 342 10.6
2009-05-18 15:33:24 51°15.764 2°54.385 345.5 11.5 340 10.6
2009-05-18 15:33:29 51°15.779 2°54.378 346.4 11.6 342 10.5
2009-05-18 15:33:34 51°15.795 2°54.369 346.2 11.6 342 10.6
2009-05-18 15:33:39 51°15.81 2°54.362 346.6 11.6 342 10.5
2009-05-18 15:33:44 51°15.825 2°54.354 347 11.6 343 11
2009-05-18 15:33:48 51°15.838 2°54.349 347 11.6 344 10.8
2009-05-18 15:33:54 51°15.856 2°54.339 346.4 11.6 342 11.1
2009-05-18 15:33:59 51°15.872 2°54.332 346.6 11.6 343 11.2
2009-05-18 15:34:04 51°15.887 2°54.325 346.9 11.6 343 11.2
2009-05-18 15:34:08 51°15.899 2°54.318 346.9 11.6 344 11.3
2009-05-18 15:34:14 51°15.918 2°54.309 346.7 11.6 343 11.5
2009-05-18 15:34:19 51°15.933 2°54.301 345.3 11.6 342 11
2009-05-18 15:34:24 51°15.948 2°54.293 346.3 11.6 343 11.2
2009-05-18 15:34:28 51°15.961 2°54.288 347.7 11.6 344 11.1
2009-05-18 15:34:34 51°15.979 2°54.279 347.9 11.6 344 11.2
2009-05-18 15:34:39 51°15.995 2°54.274 349.8 11.5 346 10.9
2009-05-18 15:34:44 51°16.011 2°54.269 352.1 11.6 348 11.2
2009-05-18 15:34:48 51°16.023 2°54.265 352.8 11.5 349 10.9
2009-05-18 15:34:54 51°16.042 2°54.26 354.5 11.5 351 11.2
2009-05-18 15:34:59 51°16.058 2°54.257 356 11.5 354 11.3
2009-05-18 15:35:04 51°16.074 2°54.255 357.9 11.5 355 11.3
2009-05-18 15:35:09 51°16.09 2°54.253 358.8 11.4 356 11.3
2009-05-18 15:35:14 51°16.106 2°54.251 0.3 11.5 357 11.2
2009-05-18 15:35:19 51°16.121 2°54.25 1.7 11.1 357 11
2009-05-18 15:35:24 51°16.135 2°54.249 1.6 10.6 358 11
2009-05-18 15:35:28 51°16.146 2°54.25 2.8 9.9 359 11.1
2009-05-18 15:35:34 51°16.162 2°54.249 3.9 9 -999 11.1
2009-05-18 15:35:39 51°16.173 2°54.249 3.7 8.4 -999 11.1
2009-05-18 15:35:44 51°16.184 2°54.249 4.2 7.9 -999 11.1
2009-05-18 15:35:48 51°16.192 2°54.25 5.1 7.2 -999 11.1
2009-05-18 15:35:54 51°16.203 2°54.251 6.4 6.5 4 11.2
2009-05-18 15:35:59 51°16.211 2°54.252 8.4 6 4 11.4
2009-05-18 15:36:04 51°16.219 2°54.254 11 5.6 11 11.3
2009-05-18 15:36:08 51°16.225 2°54.256 13.9 5.3 10 11.4
2009-05-18 15:36:15 51°16.234 2°54.26 18.2 4.8 16 11.4
2009-05-18 15:36:19 51°16.238 2°54.261 21.5 4.2 15 11.3
2009-05-18 15:36:24 51°16.243 2°54.264 22.8 3.6 17 11.3
2009-05-18 15:36:28 51°16.246 2°54.265 21.8 3 10 11.3
2009-05-18 15:36:34 51°16.25 2°54.267 18.4 2.6 14 11.4
2009-05-18 15:36:39 51°16.253 2°54.267 14.5 2.3 8 11.6
2009-05-18 15:36:44 51°16.256 2°54.268 10.5 2.1 7 11.4
2009-05-18 15:36:48 51°16.258 2°54.268 6.9 1.9 1 11.2
2009-05-18 15:36:54 51°16.261 2°54.268 4.4 1.8 5 11.1
2009-05-18 15:36:59 51°16.263 2°54.268 1.9 1.6 355 11.2
2009-05-18 15:37:04 51°16.265 2°54.267 359.9 1.5 353 11.1
2009-05-18 15:37:08 51°16.267 2°54.268 357.9 1.4 354 11.1
2009-05-18 15:37:14 51°16.269 2°54.267 356.1 1.3 1 11.4
2009-05-18 15:37:19 51°16.271 2°54.267 354.4 1.2 351 11.5
2009-05-18 15:37:24 51°16.272 2°54.266 352.8 1.2 347 11.3
2009-05-18 15:37:29 51°16.274 2°54.266 351.4 1.1 347 11.3
2009-05-18 15:37:34 51°16.275 2°54.266 351.1 1.1 355 11.5
2009-05-18 15:37:39 51°16.277 2°54.265 350.3 1.1 351 11.4
2009-05-18 15:37:44 51°16.278 2°54.265 349.4 1 351 11.4
2009-05-18 15:37:48 51°16.279 2°54.264 349.2 1 346 11.4
2009-05-18 15:37:54 51°16.281 2°54.264 348.5 1 342 11.2
2009-05-18 15:37:59 51°16.282 2°54.263 347.7 0.9 343 11.1
2009-05-18 15:38:04 51°16.283 2°54.263 347.2 0.9 348 11
2009-05-18 15:38:08 51°16.284 2°54.263 346.7 0.8 349 11.1
2009-05-18 15:38:15 51°16.286 2°54.262 346 0.9 355 11.3
2009-05-18 15:38:19 51°16.286 2°54.262 345.2 0.8 347 11.4
2009-05-18 15:38:24 51°16.287 2°54.262 344.8 0.8 -999 11.7
2009-05-18 15:38:28 51°16.288 2°54.262 344.3 0.8 354 11.5
2009-05-18 15:38:34 51°16.289 2°54.261 343.3 0.6 346 11.2
2009-05-18 15:38:39 51°16.29 2°54.261 343.4 0.7 358 11.5
2009-05-18 15:38:44 51°16.291 2°54.261 343.2 0.6 353 11.7
2009-05-18 15:38:48 51°16.292 2°54.261 342.7 0.6 351 11.6
2009-05-18 15:38:54 51°16.292 2°54.26 342.4 0.5 343 11.4
2009-05-18 15:38:59 51°16.293 2°54.26 341.6 0.5 342 11.3
2009-05-18 15:39:04 51°16.294 2°54.26 340.9 0.5 339 11.3
2009-05-18 15:39:09 51°16.295 2°54.259 340.3 0.5 350 11.4
2009-05-18 15:39:14 51°16.295 2°54.259 339.6 0.5 344 11.4
2009-05-18 15:39:19 51°16.296 2°54.259 338.6 0.5 351 11.4
2009-05-18 15:39:24 51°16.296 2°54.258 338.3 0.4 344 11.4
2009-05-18 15:39:28 51°16.297 2°54.258 338.2 0.4 340 11.5
2009-05-18 15:39:34 51°16.297 2°54.258 338.2 0.4 346 11.3
2009-05-18 15:39:39 51°16.298 2°54.258 337.8 0.3 339 11.3
2009-05-18 15:39:44 51°16.298 2°54.258 337.5 0.4 352 11.5
2009-05-18 15:39:48 51°16.299 2°54.257 337 0.3 346 11.4
2009-05-18 15:39:54 51°16.299 2°54.257 336.6 0.4 17 11.3
2009-05-18 15:39:59 51°16.299 2°54.258 336.2 0.3 20 11.7
2009-05-18 15:40:04 51°16.3 2°54.258 336.7 0.4 18 11.8
2009-05-18 15:40:08 51°16.301 2°54.258 336.8 0.3 16 11.5
2009-05-18 15:40:14 51°16.301 2°54.258 337.5 0.4 21 11.3
2009-05-18 15:40:19 51°16.302 2°54.258 337.8 0.3 15 11.2
2009-05-18 15:40:24 51°16.302 2°54.259 338.1 0.4 23 11.5
2009-05-18 15:40:28 51°16.302 2°54.258 337.9 0.3 347 11.4
2009-05-18 15:40:34 51°16.303 2°54.259 338.1 0.3 16 11.4
2009-05-18 15:40:39 51°16.303 2°54.259 338.8 0.3 20 11.7
2009-05-18 15:40:44 51°16.304 2°54.259 338.4 0.3 16 11.4
2009-05-18 15:40:48 51°16.304 2°54.259 338.4 0.1 25 11.2
2009-05-18 15:40:54 51°16.304 2°54.259 338.6 0.1 69 11.1
2009-05-18 15:40:59 51°16.304 2°54.26 339 0.3 102 11.1
2009-05-18 15:41:04 51°16.304 2°54.261 339.8 0.2 123 11.2
2009-05-18 15:41:08 51°16.303 2°54.261 339.8 0.4 115 11.3
2009-05-18 15:41:14 51°16.302 2°54.262 340.2 0.5 135 11.4
2009-05-18 15:41:19 51°16.302 2°54.263 341.1 0.7 133 11.3
2009-05-18 15:41:24 51°16.301 2°54.264 342.2 0.8 148 11.4
2009-05-18 15:41:29 51°16.3 2°54.265 344.7 0.9 141 11.6
2009-05-18 15:41:34 51°16.299 2°54.266 346.8 0.9 157 11.5
2009-05-18 15:41:39 51°16.298 2°54.267 349 1 146 11.4
2009-05-18 15:41:44 51°16.296 2°54.268 351.4 1.1 159 11.6
2009-05-18 15:41:50 51°16.294 2°54.27 354.1 1.3 155 -999
2009-05-18 15:41:55 51°16.292 2°54.27 356.5 1.3 165 -999
2009-05-18 15:42:00 51°16.29 2°54.271 359 1.4 166 4.6
2009-05-18 15:42:05 51°16.288 2°54.272 1.7 1.5 172 11.6
2009-05-18 15:42:10 51°16.286 2°54.272 3.8 1.6 173 4.6
2009-05-18 15:42:15 51°16.284 2°54.272 6.4 1.6 178 11.3
2009-05-18 15:42:20 51°16.282 2°54.273 8.8 1.5 172 4.4
2009-05-18 15:42:24 51°16.281 2°54.273 11 1.5 173 11.5
2009-05-18 15:42:30 51°16.278 2°54.273 13 1.4 177 11.6
2009-05-18 15:42:35 51°16.276 2°54.273 14.2 1.4 170 11.7
2009-05-18 15:42:39 51°16.275 2°54.273 15.6 1.3 172 11.7
2009-05-18 15:42:44 51°16.273 2°54.274 17.3 1.2 175 11.5
2009-05-18 15:42:49 51°16.272 2°54.274 18.8 1.2 178 11.4
2009-05-18 15:42:55 51°16.27 2°54.274 20.3 1.1 176 4.6
2009-05-18 15:42:59 51°16.269 2°54.274 21.5 1 170 4.5
2009-05-18 15:43:04 51°16.267 2°54.274 22.6 0.9 184 11.6
2009-05-18 15:43:09 51°16.266 2°54.275 23.3 0.9 175 11.5
2009-05-18 15:43:15 51°16.265 2°54.275 23.3 1 174 11.7
2009-05-18 15:43:19 51°16.264 2°54.275 23.6 0.9 172 11.7
2009-05-18 15:43:24 51°16.263 2°54.275 24 0.9 172 11.8
2009-05-18 15:43:29 51°16.261 2°54.275 24.7 0.8 178 11.6
2009-05-18 15:43:35 51°16.26 2°54.275 24.9 0.7 174 11.4
2009-05-18 15:43:39 51°16.259 2°54.275 24.8 0.7 166 11.4
2009-05-18 15:43:44 51°16.258 2°54.276 25.1 0.6 177 11.3
2009-05-18 15:43:49 51°16.257 2°54.276 25.1 0.6 177 11.4
2009-05-18 15:43:55 51°16.256 2°54.276 25 0.7 164 11.4
2009-05-18 15:43:59 51°16.255 2°54.277 25.1 0.6 167 11.4
2009-05-18 15:44:04 51°16.254 2°54.277 25.1 0.7 162 11.4
2009-05-18 15:44:09 51°16.254 2°54.277 25.1 0.6 162 11.5
2009-05-18 15:44:14 51°16.253 2°54.278 25.1 0.7 155 11.6
2009-05-18 15:44:19 51°16.252 2°54.278 25 0.6 159 11.6
2009-05-18 15:44:24 51°16.251 2°54.279 25 0.6 159 11.2
2009-05-18 15:44:29 51°16.25 2°54.279 24.9 0.6 163 11.3
2009-05-18 15:44:35 51°16.249 2°54.281 25.1 0.8 147 11.7
2009-05-18 15:44:39 51°16.249 2°54.281 25.4 0.6 155 11.8
2009-05-18 15:44:44 51°16.248 2°54.282 25 0.7 140 11.7
2009-05-18 15:44:49 51°16.248 2°54.282 24.5 0.5 158 11.5
2009-05-18 15:44:54 51°16.247 2°54.283 24.4 0.6 144 11.6
2009-05-18 15:44:59 51°16.246 2°54.284 24.2 0.6 139 11.7
2009-05-18 15:45:04 51°16.246 2°54.284 23.8 0.5 137 11.7
2009-05-18 15:45:09 51°16.245 2°54.285 23.4 0.5 144 11.6
2009-05-18 15:45:14 51°16.245 2°54.286 23.5 0.5 138 11.6
2009-05-18 15:45:19 51°16.244 2°54.287 23 0.4 153 11.7
2009-05-18 15:45:24 51°16.243 2°54.288 22.3 0.7 137 11.7
2009-05-18 15:45:28 51°16.243 2°54.288 22.1 0.7 134 11.8
2009-05-18 15:45:34 51°16.243 2°54.289 21.6 0.5 136 11.7
2009-05-18 15:45:39 51°16.242 2°54.29 21.1 0.6 133 11.6
2009-05-18 15:45:44 51°16.242 2°54.291 20.7 0.5 131 11.5
2009-05-18 15:45:48 51°16.241 2°54.291 20.2 0.5 132 11.5
2009-05-18 15:45:54 51°16.241 2°54.292 20.2 0.5 134 11.4
2009-05-18 15:45:59 51°16.24 2°54.293 20 0.5 135 11.5
2009-05-18 15:46:04 51°16.24 2°54.294 19.4 0.5 127 11.5
2009-05-18 15:46:08 51°16.239 2°54.295 19.5 0.5 136 11.3
2009-05-18 15:46:14 51°16.239 2°54.296 18.7 0.5 131 11.6
2009-05-18 15:46:19 51°16.238 2°54.297 18.2 0.5 122 11.7
2009-05-18 15:46:23 51°16.238 2°54.297 17.4 0.5 127 11.8
2009-05-18 15:46:28 51°16.238 2°54.299 16.8 0.4 122 11.5
2009-05-18 15:46:34 51°16.238 2°54.3 16.4 0.5 126 11.3
2009-05-18 15:46:39 51°16.237 2°54.3 15.8 0.5 116 11.3
2009-05-18 15:46:44 51°16.237 2°54.301 14.6 0.4 110 11.3
2009-05-18 15:46:48 51°16.237 2°54.302 13.2 0.3 111 11.4
2009-05-18 15:46:54 51°16.236 2°54.303 11.7 0.5 108 11.6
2009-05-18 15:46:59 51°16.236 2°54.304 10.8 0.4 114 11.4
2009-05-18 15:47:04 51°16.236 2°54.305 10 0.5 112 11.4
2009-05-18 15:47:08 51°16.236 2°54.306 9.5 0.6 108 12
2009-05-18 15:47:14 51°16.235 2°54.307 8.8 0.5 109 11.8
2009-05-18 15:47:19 51°16.235 2°54.308 8.3 0.4 108 11.3
2009-05-18 15:47:24 51°16.235 2°54.309 8.1 0.4 111 11.4
2009-05-18 15:47:28 51°16.235 2°54.309 7.7 0.5 111 11.7
2009-05-18 15:47:34 51°16.235 2°54.311 7.7 0.5 111 11.7
2009-05-18 15:47:39 51°16.235 2°54.311 7.3 0.4 113 11.5
2009-05-18 15:47:44 51°16.234 2°54.312 7.1 0.5 105 11.5
2009-05-18 15:47:48 51°16.234 2°54.313 6.6 0.4 109 11.4
2009-05-18 15:47:54 51°16.234 2°54.313 5.9 0.4 110 11.4
2009-05-18 15:47:59 51°16.234 2°54.314 5.5 0.3 112 11.2
2009-05-18 15:48:04 51°16.233 2°54.315 5.1 0.3 102 11.4
2009-05-18 15:48:08 51°16.233 2°54.315 4.7 0.4 100 11.5
2009-05-18 15:48:14 51°16.233 2°54.316 3.7 0.4 104 11.4
2009-05-18 15:48:19 51°16.233 2°54.317 2.9 0.2 109 11.6
2009-05-18 15:48:24 51°16.233 2°54.318 1.8 0.4 99 11.6
2009-05-18 15:48:28 51°16.233 2°54.318 0.9 0.4 105 11.7
2009-05-18 15:48:34 51°16.233 2°54.319 0.4 0.4 116 11.6
2009-05-18 15:48:39 51°16.233 2°54.32 0.1 0.3 123 11.5
2009-05-18 15:48:44 51°16.232 2°54.321 359.6 0.3 120 11.7
2009-05-18 15:48:48 51°16.232 2°54.321 359 0.3 120 11.5
2009-05-18 15:48:54 51°16.232 2°54.323 358.4 0.3 107 11.6
2009-05-18 15:48:59 51°16.232 2°54.323 357.9 0.4 101 11.5
2009-05-18 15:49:04 51°16.232 2°54.324 357.4 0.4 108 11.4
2009-05-18 15:49:08 51°16.232 2°54.324 357.5 0.4 111 11.4
2009-05-18 15:49:14 51°16.231 2°54.325 357.4 0.4 105 11.5
2009-05-18 15:49:19 51°16.231 2°54.326 356.9 0.5 102 11.6
2009-05-18 15:49:24 51°16.231 2°54.327 356.9 0.4 105 11.7
2009-05-18 15:49:28 51°16.231 2°54.328 357.1 0.4 102 11.6
2009-05-18 15:49:34 51°16.231 2°54.329 356.9 0.4 100 11.5
2009-05-18 15:49:39 51°16.231 2°54.329 357.2 0.3 99 11.5
2009-05-18 15:49:44 51°16.231 2°54.33 357.2 0.4 98 11.6
2009-05-18 15:49:48 51°16.231 2°54.331 357.2 0.3 72 11.6
2009-05-18 15:49:54 51°16.231 2°54.332 357.1 0.4 44 11.7
2009-05-18 15:49:59 51°16.232 2°54.332 356 0.5 13 11.6
2009-05-18 15:50:04 51°16.232 2°54.333 353.6 0.8 17 11.6
2009-05-18 15:50:08 51°16.233 2°54.333 351.7 0.8 7 11.7
2009-05-18 15:50:14 51°16.235 2°54.332 349.1 0.9 358 11.3
2009-05-18 15:50:19 51°16.236 2°54.333 346.7 1 351 11.4
2009-05-18 15:50:24 51°16.238 2°54.332 343.7 1.1 349 11.4
2009-05-18 15:50:28 51°16.239 2°54.331 341.1 1.2 339 11.5
2009-05-18 15:50:34 51°16.241 2°54.33 338.7 1.4 336 11.3
2009-05-18 15:50:39 51°16.243 2°54.329 336.9 1.7 337 11.5
2009-05-18 15:50:44 51°16.245 2°54.327 335.2 2.1 334 11.4
2009-05-18 15:50:48 51°16.248 2°54.325 333.7 2.4 331 11.4
2009-05-18 15:50:54 51°16.251 2°54.321 332.8 2.6 331 11.3
2009-05-18 15:50:59 51°16.255 2°54.318 331.6 2.9 330 11.3
2009-05-18 15:51:04 51°16.259 2°54.314 330.2 3.2 326 11.4
2009-05-18 15:51:08 51°16.262 2°54.311 328.6 3.4 325 11.3
2009-05-18 15:51:14 51°16.266 2°54.306 326.9 3.6 324 11.6
2009-05-18 15:51:19 51°16.271 2°54.3 325.8 3.8 322 11.5
2009-05-18 15:51:24 51°16.275 2°54.295 324.5 4 323 11.7
2009-05-18 15:51:28 51°16.278 2°54.291 322.7 4.1 320 11.6
2009-05-18 15:51:34 51°16.284 2°54.284 321.5 4.2 321 11.2
2009-05-18 15:51:39 51°16.289 2°54.277 321.2 4.7 316 11.3
2009-05-18 15:51:43 51°16.293 2°54.27 319.8 5.2 315 11.9
2009-05-18 15:51:49 51°16.299 2°54.26 318 5.5 311 11.9
2009-05-18 15:51:55 51°16.305 2°54.247 313.8 6.3 310 11.7
2009-05-18 15:51:59 51°16.31 2°54.237 311.4 6.8 305 11.3
2009-05-18 15:52:04 51°16.316 2°54.225 309.3 7.2 307 11.4
2009-05-18 15:52:09 51°16.322 2°54.211 310 7.8 308 11.6
2009-05-18 15:52:14 51°16.329 2°54.197 311.4 8.2 308 11.6
2009-05-18 15:52:19 51°16.336 2°54.182 311.9 8.4 309 11.1
2009-05-18 15:52:24 51°16.344 2°54.168 313.2 8.6 310 11.5
2009-05-18 15:52:29 51°16.352 2°54.153 314 8.9 311 11.7
2009-05-18 15:52:34 51°16.36 2°54.138 314.4 9 310 11.5
2009-05-18 15:52:39 51°16.368 2°54.123 314.3 9.2 310 11.8
2009-05-18 15:52:44 51°16.377 2°54.107 314.2 9.4 310 11.7
2009-05-18 15:52:49 51°16.385 2°54.091 314.2 9.4 311 11.4
2009-05-18 15:52:54 51°16.393 2°54.075 314.2 9.5 310 11.4
2009-05-18 15:52:59 51°16.402 2°54.059 314.4 9.6 310 11.5
2009-05-18 15:53:04 51°16.411 2°54.042 314.4 9.9 311 11.6
2009-05-18 15:53:09 51°16.42 2°54.026 314.4 10.2 311 11.8
2009-05-18 15:53:14 51°16.43 2°54.008 314.7 10.6 311 11.7
2009-05-18 15:53:19 51°16.44 2°53.99 314.6 10.7 311 11.7
2009-05-18 15:53:24 51°16.45 2°53.972 314.4 10.8 311 11.5
2009-05-18 15:53:29 51°16.46 2°53.954 314.8 11.1 310 12.1
2009-05-18 15:53:34 51°16.47 2°53.935 314.6 11.2 311 11.7
2009-05-18 15:53:39 51°16.48 2°53.916 314.2 11.3 310 11.8
2009-05-18 15:53:44 51°16.49 2°53.897 314.3 11.3 310 11.9
2009-05-18 15:53:49 51°16.5 2°53.878 314.2 11.4 310 11.7
2009-05-18 15:53:55 51°16.512 2°53.855 313.6 11.3 310 11.3
2009-05-18 15:53:59 51°16.52 2°53.84 314 11.4 312 12.2
2009-05-18 15:54:04 51°16.531 2°53.821 315 11.5 311 12
2009-05-18 15:54:09 51°16.542 2°53.803 315.6 11.4 314 11.8
2009-05-18 15:54:15 51°16.555 2°53.781 316.8 11.5 313 11.9
2009-05-18 15:54:19 51°16.564 2°53.766 317.4 11.5 315 12.1
2009-05-18 15:54:24 51°16.575 2°53.748 318.2 11.6 314 12.1
2009-05-18 15:54:29 51°16.586 2°53.73 318.1 11.5 315 11.8
2009-05-18 15:54:34 51°16.598 2°53.712 318.6 11.6 315 11.8
2009-05-18 15:54:39 51°16.609 2°53.694 319.7 11.5 317 11.5
2009-05-18 15:54:44 51°16.621 2°53.676 319.6 11.6 316 12
2009-05-18 15:54:49 51°16.632 2°53.658 319.5 11.6 316 12.1
2009-05-18 15:54:54 51°16.644 2°53.64 319.4 11.6 315 12.1
2009-05-18 15:54:59 51°16.655 2°53.622 318.9 11.4 316 11.4
2009-05-18 15:55:04 51°16.666 2°53.605 318.6 11.5 315 11.8
2009-05-18 15:55:09 51°16.677 2°53.587 318.5 11.4 315 11.5
2009-05-18 15:55:14 51°16.689 2°53.569 318.2 11.5 315 12
2009-05-18 15:55:19 51°16.7 2°53.551 318.7 11.3 315 11.6
2009-05-18 15:55:24 51°16.711 2°53.534 318.8 11.3 317 11.7
2009-05-18 15:55:29 51°16.723 2°53.517 320.2 11.2 316 11.6
2009-05-18 15:55:34 51°16.734 2°53.5 320.2 11.3 316 11.4
2009-05-18 15:55:39 51°16.745 2°53.483 320.2 11.3 317 11.8
2009-05-18 15:55:44 51°16.757 2°53.466 320.4 11.2 317 11.4
2009-05-18 15:55:49 51°16.768 2°53.449 320.6 11.3 317 11.9
2009-05-18 15:55:55 51°16.782 2°53.428 320.3 11.4 317 11.7
2009-05-18 15:55:59 51°16.791 2°53.414 320.4 11.4 317 11.7
2009-05-18 15:56:04 51°16.803 2°53.398 320.8 11.3 318 11
2009-05-18 15:56:09 51°16.815 2°53.382 322.8 11.2 320 11.5
2009-05-18 15:56:15 51°16.829 2°53.363 324.2 11.3 320 11.3
2009-05-18 15:56:19 51°16.839 2°53.35 323.5 11.3 319 11.3
2009-05-18 15:56:24 51°16.851 2°53.334 323.9 11.2 322 11.1
2009-05-18 15:56:29 51°16.863 2°53.319 324.2 11.1 321 10.5
2009-05-18 15:56:35 51°16.878 2°53.301 324.2 11.1 323 10.1
2009-05-18 15:56:39 51°16.888 2°53.289 326.7 11 323 9.4
2009-05-18 15:56:44 51°16.9 2°53.275 327 11 324 9
2009-05-18 15:56:49 51°16.913 2°53.262 329 11.1 327 9
2009-05-18 15:56:54 51°16.926 2°53.248 329.8 11 325 8.7
2009-05-18 15:56:59 51°16.938 2°53.235 330.1 10.9 328 8.4
2009-05-18 15:57:04 51°16.951 2°53.221 331.2 10.9 327 8.5
2009-05-18 15:57:09 51°16.964 2°53.208 331.8 11 328 8.6
2009-05-18 15:57:14 51°16.977 2°53.195 332.3 11.1 327 8.6
2009-05-18 15:57:19 51°16.99 2°53.181 331.5 11.1 326 8.7
2009-05-18 15:57:24 51°17.002 2°53.167 330.1 11.1 324 8.5
2009-05-18 15:57:29 51°17.015 2°53.153 329.6 11 326 8.7
2009-05-18 15:57:34 51°17.028 2°53.139 329.3 11.1 324 9
2009-05-18 15:57:39 51°17.04 2°53.125 328.9 11.1 327 8.9
2009-05-18 15:57:44 51°17.053 2°53.111 329.6 11.2 324 9.1
2009-05-18 15:57:49 51°17.065 2°53.096 327.1 11.1 324 8.9
2009-05-18 15:57:54 51°17.078 2°53.082 327.7 11.1 324 8.9
2009-05-18 15:57:59 51°17.09 2°53.066 327.4 11.1 323 9
2009-05-18 15:58:04 51°17.103 2°53.052 327.4 11.1 324 9.1
2009-05-18 15:58:09 51°17.115 2°53.037 327.5 11.2 323 9.4
2009-05-18 15:58:15 51°17.13 2°53.019 327.4 11.3 323 9.8
2009-05-18 15:58:19 51°17.14 2°53.007 327.9 11.3 324 9.8
2009-05-18 15:58:24 51°17.152 2°52.992 327.5 11.3 322 9.8
2009-05-18 15:58:29 51°17.164 2°52.976 327.1 11.2 323 10
2009-05-18 15:58:35 51°17.179 2°52.958 327.2 11.3 321 10
2009-05-18 15:58:39 51°17.189 2°52.944 324.9 11.3 318 10
2009-05-18 15:58:44 51°17.2 2°52.928 323.1 11.2 320 9.9
2009-05-18 15:58:49 51°17.212 2°52.911 322.7 11.3 317 10.1
2009-05-18 15:58:54 51°17.223 2°52.894 321.6 11.2 317 9.8
2009-05-18 15:58:59 51°17.234 2°52.876 320.3 11.2 314 9.8
2009-05-18 15:59:04 51°17.245 2°52.859 319.4 11.2 315 10
2009-05-18 15:59:09 51°17.255 2°52.841 319.1 11.3 314 10.2
2009-05-18 15:59:14 51°17.266 2°52.823 318.7 11.2 315 10.8
2009-05-18 15:59:19 51°17.277 2°52.806 318.3 11.1 315 9.8
2009-05-18 15:59:24 51°17.288 2°52.788 318.7 11.2 313 10.3
2009-05-18 15:59:29 51°17.298 2°52.77 317.9 11.1 313 10.1
2009-05-18 15:59:34 51°17.309 2°52.751 316.8 11.3 312 10.2
2009-05-18 15:59:39 51°17.319 2°52.733 316.4 11.3 313 10.4
2009-05-18 15:59:44 51°17.33 2°52.715 317.1 11.3 313 10.3
2009-05-18 15:59:49 51°17.341 2°52.697 318.1 11.3 314 10.4
2009-05-18 15:59:54 51°17.352 2°52.679 318.4 11.2 313 10
2009-05-18 15:59:59 51°17.363 2°52.661 318.1 11.3 314 10.4
2009-05-18 16:00:04 51°17.374 2°52.643 318.4 11.3 314 10.5
2009-05-18 16:00:09 51°17.385 2°52.625 318.5 11.4 315 10.7
2009-05-18 16:00:14 51°17.396 2°52.608 319.3 11.3 315 10.4
2009-05-18 16:00:19 51°17.407 2°52.59 319.7 11.4 316 10.7
2009-05-18 16:00:24 51°17.419 2°52.572 320 11.4 316 10.2
2009-05-18 16:00:29 51°17.43 2°52.555 320.6 11.4 316 10.7
2009-05-18 16:00:35 51°17.443 2°52.534 320.6 11.3 315 10.5
2009-05-18 16:00:39 51°17.452 2°52.52 320.3 11.3 316 10.5
2009-05-18 16:00:44 51°17.464 2°52.503 320.7 11.4 316 10.8
2009-05-18 16:00:49 51°17.475 2°52.486 320.9 11.4 317 10.8
2009-05-18 16:00:55 51°17.488 2°52.464 320.6 11.4 314 10.7
2009-05-18 16:00:59 51°17.498 2°52.45 319.6 11.3 316 10.7
2009-05-18 16:01:04 51°17.509 2°52.433 320.5 11.4 315 10.7
2009-05-18 16:01:09 51°17.52 2°52.415 320.4 11.4 316 10.8
2009-05-18 16:01:14 51°17.532 2°52.397 320.2 11.4 315 10.8
2009-05-18 16:01:19 51°17.543 2°52.38 319.9 11.4 315 10.8
2009-05-18 16:01:24 51°17.554 2°52.362 319.4 11.4 316 11.1
2009-05-18 16:01:29 51°17.565 2°52.344 319.9 11.5 316 11.1
2009-05-18 16:01:34 51°17.577 2°52.327 320.5 11.3 316 10.7
2009-05-18 16:01:39 51°17.588 2°52.309 320.6 11.4 316 10.8
2009-05-18 16:01:44 51°17.599 2°52.291 320.3 11.4 315 10.7
2009-05-18 16:01:49 51°17.61 2°52.274 320 11.3 317 10.8
2009-05-18 16:01:54 51°17.622 2°52.257 320.8 11.4 316 10.7
2009-05-18 16:01:59 51°17.633 2°52.239 320.9 11.4 316 11
2009-05-18 16:02:04 51°17.645 2°52.222 320.9 11.4 316 11.3
2009-05-18 16:02:09 51°17.656 2°52.205 321.1 11.5 317 11.5
2009-05-18 16:02:14 51°17.667 2°52.187 320.3 11.3 316 11.3
2009-05-18 16:02:19 51°17.679 2°52.17 320.7 11.4 317 11.5
2009-05-18 16:02:24 51°17.69 2°52.153 320 11.3 315 11.4
2009-05-18 16:02:29 51°17.701 2°52.136 320.3 11.4 317 11.8
2009-05-18 16:02:35 51°17.715 2°52.114 320.8 11.3 315 11.6
2009-05-18 16:02:39 51°17.724 2°52.101 319.9 11.3 317 10.7
2009-05-18 16:02:44 51°17.736 2°52.084 320.9 11.3 317 11.5
2009-05-18 16:02:49 51°17.747 2°52.066 320.8 11.3 315 11.3
2009-05-18 16:02:55 51°17.76 2°52.046 320.2 11.3 316 11.3
2009-05-18 16:02:59 51°17.769 2°52.032 320.2 11.2 316 10.8
2009-05-18 16:03:04 51°17.78 2°52.015 320 11.1 316 10.7
2009-05-18 16:03:09 51°17.791 2°51.998 320.3 11.2 316 10.7
2009-05-18 16:03:15 51°17.805 2°51.977 319.9 11.2 316 11
2009-05-18 16:03:19 51°17.813 2°51.963 320 11.2 316 10.9
2009-05-18 16:03:24 51°17.825 2°51.946 319.8 11.2 317 10.7
2009-05-18 16:03:29 51°17.836 2°51.929 320.8 11.3 317 10.6
2009-05-18 16:03:34 51°17.847 2°51.912 320.6 11.3 317 10.8
2009-05-18 16:03:39 51°17.859 2°51.895 320.6 11.4 316 10.9
2009-05-18 16:03:44 51°17.87 2°51.878 320.6 11.4 317 10.9
2009-05-18 16:03:49 51°17.882 2°51.861 320.3 11.3 318 11.3
2009-05-18 16:03:54 51°17.893 2°51.844 320.2 11.2 317 10.6
2009-05-18 16:03:59 51°17.905 2°51.827 320.9 11.1 316 10.9
2009-05-18 16:04:04 51°17.916 2°51.809 319.7 11.2 315 10.7
2009-05-18 16:04:09 51°17.927 2°51.792 319.8 11.3 317 10.6
2009-05-18 16:04:14 51°17.938 2°51.775 320 11.2 315 10.6
2009-05-18 16:04:19 51°17.949 2°51.757 319.8 11.2 315 10.4
2009-05-18 16:04:24 51°17.96 2°51.74 319.4 11.4 315 11.1
2009-05-18 16:04:29 51°17.971 2°51.722 319 11.4 314 10.9
2009-05-18 16:04:34 51°17.982 2°51.704 318.8 11.5 316 11.4
2009-05-18 16:04:39 51°17.994 2°51.687 319.5 11.4 316 11.3
2009-05-18 16:04:44 51°18.005 2°51.668 319.4 11.5 315 11.1
2009-05-18 16:04:49 51°18.016 2°51.651 319.2 11.3 315 10.9
2009-05-18 16:04:55 51°18.03 2°51.63 319.6 11.4 317 11.6
2009-05-18 16:04:59 51°18.039 2°51.616 320.1 11.3 316 11
2009-05-18 16:05:04 51°18.05 2°51.598 320.1 11.3 316 11.4
2009-05-18 16:05:09 51°18.061 2°51.581 320.6 11.3 316 11.4
2009-05-18 16:05:15 51°18.075 2°51.56 320.2 11.4 315 11.8
2009-05-18 16:05:19 51°18.084 2°51.546 319.9 11.5 316 11.9
2009-05-18 16:05:24 51°18.095 2°51.528 320.2 11.5 316 11.6
2009-05-18 16:05:29 51°18.107 2°51.511 320.4 11.4 317 11.8
2009-05-18 16:05:35 51°18.121 2°51.49 320.8 11.4 316 11.7
2009-05-18 16:05:39 51°18.13 2°51.476 320.8 11.5 316 12.1
2009-05-18 16:05:44 51°18.141 2°51.458 320.7 11.5 317 12.3
2009-05-18 16:05:49 51°18.153 2°51.441 320.3 11.5 317 11.9
2009-05-18 16:05:54 51°18.164 2°51.423 320.6 11.5 316 12.2
2009-05-18 16:05:59 51°18.176 2°51.405 320.1 11.5 315 12
2009-05-18 16:06:04 51°18.187 2°51.387 319.5 11.4 316 12
2009-05-18 16:06:09 51°18.198 2°51.369 320 11.4 316 12.3
2009-05-18 16:06:14 51°18.21 2°51.352 320.7 11.5 317 12.8
2009-05-18 16:06:19 51°18.222 2°51.335 320.7 11.5 316 12.8
2009-05-18 16:06:24 51°18.233 2°51.318 320.8 11.5 317 13.1
2009-05-18 16:06:29 51°18.245 2°51.3 320.5 11.5 316 12.9
2009-05-18 16:06:35 51°18.259 2°51.279 320.8 11.4 317 12.8
2009-05-18 16:06:39 51°18.268 2°51.265 321 11.5 317 13
2009-05-18 16:06:44 51°18.28 2°51.248 321.2 11.5 318 13.4
2009-05-18 16:06:49 51°18.291 2°51.23 320.9 11.5 316 13.2
2009-05-18 16:06:55 51°18.305 2°51.209 320.3 11.5 316 12.9
2009-05-18 16:06:59 51°18.314 2°51.195 320.2 11.5 316 13.3
2009-05-18 16:07:04 51°18.326 2°51.177 320.7 11.5 317 13.4
2009-05-18 16:07:09 51°18.337 2°51.159 320.1 11.5 317 13.7
2009-05-18 16:07:15 51°18.351 2°51.14 321.3 11.1 319 14.2
2009-05-18 16:07:19 51°18.359 2°51.127 322.2 10.4 318 13.9
2009-05-18 16:07:24 51°18.369 2°51.112 321.4 9.9 318 13.1
2009-05-18 16:07:29 51°18.379 2°51.099 321.3 8.8 320 13.5
2009-05-18 16:07:35 51°18.39 2°51.086 323.5 8.3 320 14.1
2009-05-18 16:07:39 51°18.396 2°51.076 323.3 7.7 319 14.2
2009-05-18 16:07:44 51°18.403 2°51.066 322.9 7.2 319 14
2009-05-18 16:07:49 51°18.41 2°51.056 322.5 6.6 318 14.3
2009-05-18 16:07:55 51°18.417 2°51.045 321.6 6 318 13.8
2009-05-18 16:07:59 51°18.422 2°51.038 320.8 5.6 316 13.8
2009-05-18 16:08:04 51°18.427 2°51.03 320 5.1 317 13.7
2009-05-18 16:08:09 51°18.432 2°51.022 318.9 4.8 317 13.8
2009-05-18 16:08:14 51°18.437 2°51.015 320 4.4 318 13.8
2009-05-18 16:08:19 51°18.441 2°51.01 321.3 4.2 320 14
2009-05-18 16:08:24 51°18.446 2°51.004 324.4 3.9 322 13.9
2009-05-18 16:08:29 51°18.45 2°50.999 326.1 3.8 324 14.3
2009-05-18 16:08:34 51°18.454 2°50.995 329.4 3.4 327 14.4
2009-05-18 16:08:39 51°18.458 2°50.991 331.1 3 328 14.4
2009-05-18 16:08:44 51°18.461 2°50.988 332.1 2.6 328 14.2
2009-05-18 16:08:49 51°18.464 2°50.985 331.5 2.1 328 14
2009-05-18 16:08:54 51°18.466 2°50.983 329.5 1.9 326 14.1
2009-05-18 16:08:59 51°18.468 2°50.981 327.9 1.7 325 14.2
2009-05-18 16:09:04 51°18.47 2°50.979 326 1.5 329 14.1
2009-05-18 16:09:09 51°18.471 2°50.977 324.3 1.4 322 14.3
2009-05-18 16:09:15 51°18.473 2°50.975 322.4 1.4 321 14.2
2009-05-18 16:09:19 51°18.474 2°50.973 321 1.3 322 14.4
2009-05-18 16:09:24 51°18.475 2°50.971 319 1.2 315 14.5
2009-05-18 16:09:29 51°18.477 2°50.97 317.7 1.1 318 14.3
2009-05-18 16:09:35 51°18.478 2°50.968 316.7 0.8 318 14.2
2009-05-18 16:09:39 51°18.478 2°50.967 315.6 0.7 322 14.3
2009-05-18 16:09:44 51°18.479 2°50.966 314.4 0.7 314 14.4
2009-05-18 16:09:49 51°18.48 2°50.966 314 0.7 329 14.7
2009-05-18 16:09:55 51°18.48 2°50.965 313.5 0.5 324 14.7
2009-05-18 16:09:59 51°18.481 2°50.964 313.6 0.5 327 14.4
2009-05-18 16:10:04 51°18.481 2°50.964 314 0.4 327 14.1
2009-05-18 16:10:09 51°18.482 2°50.963 314.4 0.4 329 14.3
2009-05-18 16:10:15 51°18.482 2°50.963 314.9 0.4 332 14.6
2009-05-18 16:10:19 51°18.483 2°50.963 315.5 0.4 347 14.6
2009-05-18 16:10:24 51°18.483 2°50.962 315.8 0.3 334 14.5
2009-05-18 16:10:29 51°18.484 2°50.962 315.9 0.4 354 14.5
2009-05-18 16:10:34 51°18.484 2°50.962 316.4 0.4 11 14.8
2009-05-18 16:10:39 51°18.484 2°50.962 316.6 0.3 15 14.7
2009-05-18 16:10:44 51°18.485 2°50.963 317.4 0.4 20 14.7
2009-05-18 16:10:49 51°18.485 2°50.963 317.8 0.5 27 14.9
2009-05-18 16:10:55 51°18.486 2°50.963 317.7 0.3 24 15
2009-05-18 16:10:59 51°18.486 2°50.964 318.1 0.1 31 14.6
2009-05-18 16:11:04 51°18.486 2°50.964 319.2 0.2 54 14.2
2009-05-18 16:11:09 51°18.487 2°50.965 319.7 0.2 51 14.2
2009-05-18 16:11:15 51°18.487 2°50.965 320 0.3 65 14.3
2009-05-18 16:11:19 51°18.487 2°50.966 320.6 0.2 58 14.4
2009-05-18 16:11:24 51°18.487 2°50.966 321.7 0.4 58 14.1
2009-05-18 16:11:29 51°18.488 2°50.967 322.2 0.3 62 14.3
2009-05-18 16:11:35 51°18.488 2°50.968 323.3 0.4 62 14.5
2009-05-18 16:11:39 51°18.488 2°50.969 324.4 0.3 69 14.3
2009-05-18 16:11:44 51°18.489 2°50.97 325.3 0.4 64 14.4
2009-05-18 16:11:49 51°18.489 2°50.971 326.5 0.5 63 14.5
2009-05-18 16:11:55 51°18.489 2°50.972 327.4 0.4 72 14.6
2009-05-18 16:11:59 51°18.489 2°50.973 328.9 0.4 86 14.1
2009-05-18 16:12:04 51°18.489 2°50.974 330.4 0.5 73 13.9
2009-05-18 16:12:09 51°18.489 2°50.975 332 0.4 107 14.1
2009-05-18 16:12:15 51°18.489 2°50.976 334 0.4 101 14.2
2009-05-18 16:12:19 51°18.489 2°50.977 335.5 0.6 84 14.6
2009-05-18 16:12:24 51°18.489 2°50.978 336.2 0.4 100 14.7
2009-05-18 16:12:29 51°18.489 2°50.979 337.3 0.3 107 14.3
2009-05-18 16:12:34 51°18.489 2°50.98 338.8 0.5 104 14.2
2009-05-18 16:12:39 51°18.489 2°50.981 340 0.4 108 14.1
2009-05-18 16:12:44 51°18.489 2°50.982 341.3 0.5 108 14.2
2009-05-18 16:12:49 51°18.489 2°50.983 342.5 0.3 117 14.4
2009-05-18 16:12:54 51°18.489 2°50.984 343.4 0.6 95 14.7
2009-05-18 16:12:59 51°18.489 2°50.985 344.2 0.5 104 14.5
2009-05-18 16:13:04 51°18.488 2°50.986 345.1 0.5 101 14.4
2009-05-18 16:13:09 51°18.488 2°50.987 346.3 0.5 102 14.6
2009-05-18 16:13:15 51°18.488 2°50.988 346.9 0.6 97 14.6
2009-05-18 16:13:19 51°18.488 2°50.989 347.7 0.5 110 14.5
2009-05-18 16:13:24 51°18.488 2°50.99 348.5 0.6 117 14.4
2009-05-18 16:13:29 51°18.487 2°50.991 349.3 0.6 119 14.1
2009-05-18 16:13:35 51°18.487 2°50.993 350.1 0.5 104 14.2
2009-05-18 16:13:39 51°18.487 2°50.994 350.8 0.6 97 14.3
2009-05-18 16:13:44 51°18.487 2°50.995 351.2 0.3 119 14.1
2009-05-18 16:13:49 51°18.487 2°50.996 352.2 0.4 114 14.3
2009-05-18 16:13:55 51°18.486 2°50.997 353.5 0.5 111 14.4
2009-05-18 16:13:59 51°18.486 2°50.998 354.6 0.6 111 14.4
2009-05-18 16:14:04 51°18.486 2°51 355.5 0.6 108 14.5
2009-05-18 16:14:09 51°18.486 2°51.001 356.2 0.7 108 14.7
2009-05-18 16:14:15 51°18.485 2°51.002 356.8 0.7 109 14.6
2009-05-18 16:14:19 51°18.485 2°51.003 357.5 0.7 113 14.5
2009-05-18 16:14:24 51°18.485 2°51.004 358.4 0.5 120 14.4
2009-05-18 16:14:29 51°18.484 2°51.005 358.9 0.5 109 14.4
2009-05-18 16:14:35 51°18.484 2°51.006 359.1 0.5 113 14.5
2009-05-18 16:14:39 51°18.484 2°51.007 359.6 0.5 121 14.5
2009-05-18 16:14:44 51°18.483 2°51.008 359.9 0.5 115 14.5
2009-05-18 16:14:49 51°18.483 2°51.009 -999 0.4 128 14.4
2009-05-18 16:14:55 51°18.483 2°51.01 359.6 0.6 119 14.2
2009-05-18 16:14:59 51°18.482 2°51.012 -999 0.5 124 14.4
2009-05-18 16:15:04 51°18.482 2°51.013 0.5 0.8 108 14.8
2009-05-18 16:15:09 51°18.482 2°51.014 0.4 0.6 96 14.8
2009-05-18 16:15:14 51°18.482 2°51.015 1.1 0.6 83 14.5
2009-05-18 16:15:19 51°18.482 2°51.016 2.7 0.5 57 14.2
2009-05-18 16:15:24 51°18.483 2°51.017 4.6 0.6 44 14.1
2009-05-18 16:15:29 51°18.484 2°51.019 7 0.8 42 14.7
2009-05-18 16:15:35 51°18.485 2°51.02 9.1 1 51 14.6
2009-05-18 16:15:39 51°18.486 2°51.021 12.1 1 25 14.4
2009-05-18 16:15:44 51°18.487 2°51.023 14.8 1.3 42 14.4
2009-05-18 16:15:49 51°18.489 2°51.024 17.5 1.3 32 14.6
2009-05-18 16:15:55 51°18.49 2°51.026 20.1 1.4 36 14.5
2009-05-18 16:15:59 51°18.492 2°51.028 22.7 1.6 35 14.4
2009-05-18 16:16:04 51°18.494 2°51.03 25.5 1.8 37 14.3
2009-05-18 16:16:09 51°18.496 2°51.033 28.4 2.2 38 14.2
2009-05-18 16:16:15 51°18.499 2°51.037 32.8 2.5 39 14.2
2009-05-18 16:16:19 51°18.502 2°51.04 36.2 2.8 43 14.4
2009-05-18 16:16:24 51°18.505 2°51.045 39.4 3 44 14.4
2009-05-18 16:16:29 51°18.508 2°51.05 43.1 3.3 48 14.5
2009-05-18 16:16:35 51°18.512 2°51.058 46.5 3.6 51 14.4
2009-05-18 16:16:39 51°18.514 2°51.063 49.5 3.8 53 14.2
2009-05-18 16:16:44 51°18.517 2°51.07 52.5 3.9 57 14.5
2009-05-18 16:16:49 51°18.52 2°51.078 55.9 4.2 61 14.8
2009-05-18 16:16:55 51°18.523 2°51.089 59.3 4.6 64 14.5
2009-05-18 16:16:59 51°18.526 2°51.097 63 5 68 14.6
2009-05-18 16:17:04 51°18.528 2°51.108 67.1 5.3 71 14.3
2009-05-18 16:17:09 51°18.53 2°51.12 70.7 5.6 72 14.5
2009-05-18 16:17:15 51°18.533 2°51.134 71.9 5.9 73 14.4
2009-05-18 16:17:19 51°18.535 2°51.145 72.9 6.1 73 14.4
2009-05-18 16:17:24 51°18.538 2°51.158 72.1 6.3 73 14.5
2009-05-18 16:17:29 51°18.54 2°51.172 72 6.5 71 14.4
2009-05-18 16:17:35 51°18.544 2°51.189 71.5 6.7 74 14.3
2009-05-18 16:17:39 51°18.546 2°51.2 71.5 6.8 70 14.5
2009-05-18 16:17:44 51°18.549 2°51.215 70.7 6.9 75 14.5
2009-05-18 16:17:49 51°18.552 2°51.229 71.6 7 70 14.3
2009-05-18 16:17:55 51°18.556 2°51.247 71 7.1 74 14.5
2009-05-18 16:17:59 51°18.559 2°51.26 71.5 7.5 71 14.3
2009-05-18 16:18:04 51°18.562 2°51.276 71.3 7.9 71 14.5
2009-05-18 16:18:09 51°18.566 2°51.293 71.2 8.3 72 14.2
2009-05-18 16:18:15 51°18.57 2°51.315 71.3 8.6 70 14.5
2009-05-18 16:18:19 51°18.573 2°51.33 70.9 8.8 73 14.3
2009-05-18 16:18:24 51°18.577 2°51.349 71.7 9.2 72 14.4
2009-05-18 16:18:29 51°18.582 2°51.368 70.8 9.3 71 14.2
2009-05-18 16:18:35 51°18.585 2°51.393 71.8 9.8 74 14.3
2009-05-18 16:18:39 51°18.591 2°51.409 71.1 9.9 67 14.3
2009-05-18 16:18:44 51°18.593 2°51.431 72 10 76 14.2
2009-05-18 16:18:49 51°18.6 2°51.451 71.2 10.4 65 14.2
2009-05-18 16:18:55 51°18.604 2°51.479 70.6 10.5 77 14.2
2009-05-18 16:18:59 51°18.609 2°51.495 71.9 10.5 66 14.1
2009-05-18 16:19:04 51°18.614 2°51.518 70.3 11 72 14
2009-05-18 16:19:09 51°18.618 2°51.542 72 11.3 70 14.3
2009-05-18 16:19:15 51°18.625 2°51.569 70.5 10.9 70 14
2009-05-18 16:19:19 51°18.629 2°51.589 70.7 11.4 72 13.9
2009-05-18 16:19:24 51°18.634 2°51.613 71.7 11.8 70 14.2
2009-05-18 16:19:29 51°18.64 2°51.637 70.5 11.3 70 14
2009-05-18 16:19:34 51°18.644 2°51.661 71.5 11.4 72 13.8
2009-05-18 16:19:39 51°18.651 2°51.685 71.3 11.9 68 13.8
2009-05-18 16:19:44 51°18.656 2°51.71 70.1 11.8 71 13.8
2009-05-18 16:19:49 51°18.661 2°51.734 70.1 11.4 71 13.8
2009-05-18 16:19:55 51°18.667 2°51.763 71.3 11.7 72 13.8
2009-05-18 16:19:59 51°18.672 2°51.783 71.8 11.7 69 13.8
2009-05-18 16:20:04 51°18.677 2°51.807 70.5 11.6 72 13.9
2009-05-18 16:20:09 51°18.682 2°51.831 70.5 11.6 70 13.8
2009-05-18 16:20:15 51°18.689 2°51.861 71.1 11.9 72 13.5
2009-05-18 16:20:19 51°18.693 2°51.881 71.9 12 68 13.7
2009-05-18 16:20:24 51°18.7 2°51.905 69 11.9 67 13.5
2009-05-18 16:20:29 51°18.704 2°51.93 71.2 11.7 72 13.5
2009-05-18 16:20:35 51°18.712 2°51.959 70.4 11.8 69 13.4
2009-05-18 16:20:39 51°18.715 2°51.979 71.7 11.8 71 13.6
2009-05-18 16:20:44 51°18.722 2°52.003 70.2 11.8 67 13.5
2009-05-18 16:20:49 51°18.726 2°52.028 70.9 11.8 73 13.5
2009-05-18 16:20:55 51°18.733 2°52.058 71.2 12 68 13.4
2009-05-18 16:20:59 51°18.737 2°52.078 71.1 11.9 73 13.4
2009-05-18 16:21:04 51°18.744 2°52.102 70.9 11.8 66 13.2
2009-05-18 16:21:09 51°18.748 2°52.128 69.8 12.1 74 13.3
2009-05-18 16:21:15 51°18.756 2°52.158 71 12 69 13.4
2009-05-18 16:21:19 51°18.759 2°52.177 71.4 11.5 73 13.2
2009-05-18 16:21:24 51°18.764 2°52.202 73 11.8 73 13.1
2009-05-18 16:21:29 51°18.77 2°52.227 71.8 12.1 68 13.1
2009-05-18 16:21:35 51°18.775 2°52.256 71.2 11.4 76 13.3
2009-05-18 16:21:39 51°18.778 2°52.276 73.6 11.3 72 13
2009-05-18 16:21:44 51°18.785 2°52.3 71.9 11.8 69 12.9
2009-05-18 16:21:49 51°18.789 2°52.325 70.6 11.8 72 13.1
2009-05-18 16:21:54 51°18.795 2°52.349 71.6 11.6 71 13
2009-05-18 16:21:59 51°18.8 2°52.374 72 11.8 71 12.8
2009-05-18 16:22:04 51°18.806 2°52.398 70.8 11.9 70 13
2009-05-18 16:22:09 51°18.811 2°52.423 70.3 11.8 71 13
2009-05-18 16:22:15 51°18.818 2°52.452 70.5 11.8 70 12.7
2009-05-18 16:22:19 51°18.822 2°52.473 70.6 12.2 71 12.8
2009-05-18 16:22:24 51°18.829 2°52.498 69.7 12.2 66 13
2009-05-18 16:22:29 51°18.834 2°52.523 68.6 11.8 72 12.5
2009-05-18 16:22:35 51°18.841 2°52.553 71.1 12.1 70 12.8
2009-05-18 16:22:39 51°18.846 2°52.572 70 12.1 68 12.8
2009-05-18 16:22:44 51°18.851 2°52.598 70.1 11.9 72 12.8
2009-05-18 16:22:49 51°18.858 2°52.622 70.1 11.8 67 12.7
2009-05-18 16:22:55 51°18.864 2°52.652 69.8 11.8 73 12.7
2009-05-18 16:22:59 51°18.869 2°52.671 70.5 11.7 66 12.8
2009-05-18 16:23:04 51°18.875 2°52.695 69 11.5 70 12.6
2009-05-18 16:23:09 51°18.88 2°52.719 71.2 11.7 69 12.7
2009-05-18 16:23:15 51°18.887 2°52.748 70.1 11.8 69 12.7
2009-05-18 16:23:19 51°18.891 2°52.768 69.8 11.7 72 12.6
2009-05-18 16:23:24 51°18.896 2°52.792 71.1 11.7 70 12.6
2009-05-18 16:23:29 51°18.902 2°52.817 70 11.9 73 12.7
2009-05-18 16:23:35 51°18.909 2°52.847 70.8 11.9 67 12.7
2009-05-18 16:23:39 51°18.913 2°52.866 70.1 11.5 73 12.6
2009-05-18 16:23:44 51°18.918 2°52.89 71.7 11.7 70 12.4
2009-05-18 16:23:49 51°18.924 2°52.915 70.2 11.9 67 12.8
2009-05-18 16:23:54 51°18.929 2°52.939 69.7 11.4 75 12.5
2009-05-18 16:23:59 51°18.933 2°52.964 73.1 11.6 71 12.6
2009-05-18 16:24:04 51°18.94 2°52.988 70.5 11.9 68 12.6
2009-05-18 16:24:09 51°18.945 2°53.012 69.3 11.7 72 12.6
2009-05-18 16:24:15 51°18.952 2°53.042 71.2 11.8 70 12.4
2009-05-18 16:24:19 51°18.955 2°53.062 71.3 12 72 12.7
2009-05-18 16:24:24 51°18.962 2°53.086 70.3 11.7 69 12.3
2009-05-18 16:24:29 51°18.966 2°53.112 72.2 11.9 74 12.5
2009-05-18 16:24:35 51°18.974 2°53.141 70.8 11.9 69 12.5
2009-05-18 16:24:39 51°18.977 2°53.162 71.4 12 72 12.5
2009-05-18 16:24:44 51°18.984 2°53.186 70.6 11.9 68 12.6
2009-05-18 16:24:49 51°18.988 2°53.211 70.3 11.6 74 12.5
2009-05-18 16:24:55 51°18.994 2°53.241 72.5 12 72 12.5
2009-05-18 16:24:59 51°18.998 2°53.261 72.3 12.3 72 12.4
2009-05-18 16:25:04 51°19.004 2°53.286 71.5 12 70 12.6
2009-05-18 16:25:09 51°19.009 2°53.311 70.7 11.5 72 12.5
2009-05-18 16:25:15 51°19.015 2°53.341 72.4 11.8 73 12.5
2009-05-18 16:25:19 51°19.019 2°53.361 72.7 12.2 71 12.5
2009-05-18 16:25:24 51°19.024 2°53.386 72.1 11.9 73 12.6
2009-05-18 16:25:29 51°19.029 2°53.41 72.7 11.4 74 12.4
2009-05-18 16:25:35 51°19.034 2°53.441 74.2 12 73 12.5
2009-05-18 16:25:39 51°19.039 2°53.461 72.3 12.3 70 12.7
2009-05-18 16:25:44 51°19.043 2°53.487 72.7 11.8 76 12.6
2009-05-18 16:25:49 51°19.048 2°53.511 74.1 11.7 73 12.3
2009-05-18 16:25:55 51°19.054 2°53.542 74 12.1 72 12.6
2009-05-18 16:25:59 51°19.058 2°53.562 72.1 11.8 74 12.6
2009-05-18 16:26:04 51°19.061 2°53.587 75 11.5 77 12.8
2009-05-18 16:26:09 51°19.067 2°53.61 73.6 11.6 70 12.5
2009-05-18 16:26:14 51°19.07 2°53.637 73.8 12 77 12.7
2009-05-18 16:26:19 51°19.077 2°53.661 73 11.8 70 12.6
2009-05-18 16:26:24 51°19.079 2°53.687 74.1 11.8 77 12.6
2009-05-18 16:26:29 51°19.086 2°53.711 74 11.9 70 12.6
2009-05-18 16:26:35 51°19.09 2°53.742 72.7 11.8 76 12.5
2009-05-18 16:26:39 51°19.094 2°53.762 73.9 11.8 75 12.5
2009-05-18 16:26:44 51°19.098 2°53.787 74.8 12.1 73 12.6
2009-05-18 16:26:49 51°19.103 2°53.813 74.1 12 75 12.6
2009-05-18 16:26:55 51°19.109 2°53.844 74.3 11.9 74 12.4
2009-05-18 16:26:59 51°19.112 2°53.865 74.2 12.1 75 12.5
2009-05-18 16:27:04 51°19.117 2°53.89 73.7 12.3 71 12.5
2009-05-18 16:27:09 51°19.122 2°53.916 72.3 12.1 76 12.5
2009-05-18 16:27:15 51°19.127 2°53.947 74.4 12 73 12.5
2009-05-18 16:27:19 51°19.131 2°53.967 73.6 12 73 12.5
2009-05-18 16:27:24 51°19.136 2°53.993 73.2 12.1 75 12.5
2009-05-18 16:27:29 51°19.14 2°54.018 74.4 11.9 74 12.5
2009-05-18 16:27:35 51°19.146 2°54.048 74.5 11.8 74 12.4
2009-05-18 16:27:39 51°19.15 2°54.069 74 12.1 74 12.5
2009-05-18 16:27:44 51°19.154 2°54.095 73.8 12.1 75 12.5
2009-05-18 16:27:49 51°19.158 2°54.12 74.9 11.9 75 12.6
2009-05-18 16:27:55 51°19.163 2°54.151 75.4 12.1 75 12.5
2009-05-18 16:27:59 51°19.167 2°54.172 74.2 12 72 12.7
2009-05-18 16:28:04 51°19.172 2°54.196 72.8 11.6 76 12.5
2009-05-18 16:28:09 51°19.175 2°54.222 75.3 11.7 75 12.6
2009-05-18 16:28:15 51°19.182 2°54.251 73.8 11.8 71 12.6
2009-05-18 16:28:19 51°19.185 2°54.271 73.2 11.7 77 12.5
2009-05-18 16:28:24 51°19.19 2°54.296 74.1 11.7 71 12.6
2009-05-18 16:28:29 51°19.194 2°54.321 72.7 12 77 12.5
2009-05-18 16:28:34 51°19.199 2°54.347 74.4 11.9 71 12.7
2009-05-18 16:28:39 51°19.205 2°54.371 72 11.6 72 12.5
2009-05-18 16:28:44 51°19.209 2°54.396 72.7 11.8 73 12.5
2009-05-18 16:28:49 51°19.214 2°54.422 72.7 12.1 73 12.4
2009-05-18 16:28:55 51°19.22 2°54.452 72.9 11.9 72 12.6
2009-05-18 16:28:59 51°19.225 2°54.471 71.2 11.5 72 12.5
2009-05-18 16:29:04 51°19.228 2°54.497 72.9 11.9 75 12.5
2009-05-18 16:29:09 51°19.235 2°54.522 72.1 12.2 68 12.5
2009-05-18 16:29:15 51°19.24 2°54.552 71 11.8 76 12.5
2009-05-18 16:29:19 51°19.244 2°54.572 73.3 11.8 71 12.4
2009-05-18 16:29:24 51°19.249 2°54.598 72.1 12.2 72 12.6
2009-05-18 16:29:29 51°19.254 2°54.623 71.6 12.1 73 12.5
2009-05-18 16:29:35 51°19.26 2°54.654 73 12 74 12.5
2009-05-18 16:29:39 51°19.264 2°54.674 73.1 12.1 73 12.4
2009-05-18 16:29:44 51°19.269 2°54.699 72 12 71 12.5
2009-05-18 16:29:49 51°19.273 2°54.725 71.9 12 75 12.5
2009-05-18 16:29:55 51°19.28 2°54.755 72.9 11.9 72 12.3
2009-05-18 16:29:59 51°19.283 2°54.776 72.6 12.1 73 12.6
2009-05-18 16:30:04 51°19.289 2°54.801 71.9 11.9 71 12.5
2009-05-18 16:30:09 51°19.293 2°54.826 72.7 11.9 76 12.5
2009-05-18 16:30:15 51°19.299 2°54.856 73.4 12 70 12.5
2009-05-18 16:30:19 51°19.303 2°54.876 71.6 11.9 75 12.4
2009-05-18 16:30:24 51°19.307 2°54.902 73.2 11.8 73 12.5
2009-05-18 16:30:29 51°19.313 2°54.926 72.8 11.8 72 12.4
2009-05-18 16:30:34 51°19.317 2°54.952 72.5 12 74 12.4
2009-05-18 16:30:39 51°19.322 2°54.977 73.2 12.2 74 12.4
2009-05-18 16:30:44 51°19.326 2°55.003 73.9 12 74 12.4
2009-05-18 16:30:49 51°19.331 2°55.029 74.1 11.9 75 12.4
2009-05-18 16:30:55 51°19.336 2°55.06 74.5 12.2 75 12.4
2009-05-18 16:30:59 51°19.34 2°55.08 74.8 12.2 74 12.4
2009-05-18 16:31:04 51°19.344 2°55.106 74.4 12 76 12.4
2009-05-18 16:31:09 51°19.349 2°55.132 75 12.1 73 12.3
2009-05-18 16:31:15 51°19.354 2°55.163 74.2 12.3 76 12.3
2009-05-18 16:31:19 51°19.358 2°55.184 74.4 12.1 72 12.5
2009-05-18 16:31:24 51°19.362 2°55.209 73.4 11.9 75 12.4
2009-05-18 16:31:29 51°19.367 2°55.235 74.4 12 72 12.3
2009-05-18 16:31:35 51°19.373 2°55.265 73.1 12.1 74 12.5
2009-05-18 16:31:39 51°19.376 2°55.285 73.1 11.8 75 12.3
2009-05-18 16:31:44 51°19.38 2°55.311 74.4 11.9 74 12.5
2009-05-18 16:31:49 51°19.386 2°55.336 72.9 11.9 71 12.3
2009-05-18 16:31:55 51°19.391 2°55.366 72 11.9 75 12.2
2009-05-18 16:31:59 51°19.395 2°55.387 73.4 12.1 74 12.4
2009-05-18 16:32:04 51°19.401 2°55.412 72.5 12 69 12.2
2009-05-18 16:32:09 51°19.405 2°55.437 71.4 11.9 75 12.3
2009-05-18 16:32:15 51°19.411 2°55.467 72.8 12 71 12.4
2009-05-18 16:32:19 51°19.416 2°55.487 71.7 12 74 12.2
2009-05-18 16:32:24 51°19.42 2°55.513 72.7 12 74 12.4
2009-05-18 16:32:29 51°19.425 2°55.538 72.2 11.8 72 12.3
2009-05-18 16:32:35 51°19.43 2°55.569 73.4 12 76 12.2
2009-05-18 16:32:39 51°19.434 2°55.589 73.9 12.1 71 12.4
2009-05-18 16:32:44 51°19.438 2°55.614 72.7 12 78 12.3
2009-05-18 16:32:49 51°19.444 2°55.639 74.1 11.9 69 12.3
2009-05-18 16:32:55 51°19.449 2°55.67 71.8 11.9 76 12.2
2009-05-18 16:32:59 51°19.453 2°55.69 73.4 12 72 12.2
2009-05-18 16:33:04 51°19.459 2°55.715 72.1 11.9 73 12.2
2009-05-18 16:33:09 51°19.462 2°55.741 74 12 76 12.3
2009-05-18 16:33:15 51°19.47 2°55.77 72.7 11.9 68 12.3
2009-05-18 16:33:19 51°19.472 2°55.791 71.4 11.7 79 12.1
2009-05-18 16:33:24 51°19.476 2°55.816 75 12 71 12.2
2009-05-18 16:33:29 51°19.482 2°55.841 71.9 12.1 73 12.3
2009-05-18 16:33:35 51°19.487 2°55.871 72.6 11.6 73 12.2
2009-05-18 16:33:39 51°19.491 2°55.891 72.8 11.9 76 12.1
2009-05-18 16:33:44 51°19.496 2°55.917 73.5 12.4 69 12.2
2009-05-18 16:33:49 51°19.501 2°55.943 71.1 12 76 12.2
2009-05-18 16:33:55 51°19.506 2°55.973 73.8 11.7 72 12.2
2009-05-18 16:33:59 51°19.511 2°55.993 72.5 12.1 74 12.1
2009-05-18 16:34:04 51°19.515 2°56.019 72.8 12.3 74 12.2
2009-05-18 16:34:09 51°19.52 2°56.045 72.8 12 73 12.2
2009-05-18 16:34:15 51°19.525 2°56.076 73.4 11.8 76 11.9
2009-05-18 16:34:19 51°19.528 2°56.097 75.1 12.4 74 12.1
2009-05-18 16:34:24 51°19.535 2°56.123 72.2 12.4 68 12.3
2009-05-18 16:34:29 51°19.539 2°56.147 70.8 11.5 79 12
2009-05-18 16:34:35 51°19.543 2°56.177 75.2 11.8 73 11.9
2009-05-18 16:34:39 51°19.548 2°56.198 73.8 12.2 73 12.2
2009-05-18 16:34:44 51°19.553 2°56.223 72.3 11.5 71 12.2
2009-05-18 16:34:49 51°19.557 2°56.247 72.9 11.5 77 11.9
2009-05-18 16:34:55 51°19.563 2°56.278 74.2 12.3 70 12.1
2009-05-18 16:34:59 51°19.567 2°56.298 71.5 11.8 73 12.3
2009-05-18 16:35:04 51°19.571 2°56.323 73.2 11.4 76 12
2009-05-18 16:35:09 51°19.575 2°56.348 74.7 11.9 73 11.9
2009-05-18 16:35:15 51°19.581 2°56.379 72.8 12.2 74 12.1
2009-05-18 16:35:19 51°19.584 2°56.399 74.1 11.9 75 12.1
2009-05-18 16:35:24 51°19.589 2°56.424 74.4 11.8 75 12.2
2009-05-18 16:35:29 51°19.594 2°56.449 73.4 11.8 71 11.9
2009-05-18 16:35:35 51°19.599 2°56.48 73.3 12.1 77 11.8
2009-05-18 16:35:39 51°19.603 2°56.5 73.8 12.2 70 12
2009-05-18 16:35:44 51°19.608 2°56.526 72.4 11.8 76 12.1
2009-05-18 16:35:49 51°19.612 2°56.551 73.9 11.8 73 11.8
2009-05-18 16:35:55 51°19.618 2°56.582 73.2 12.1 73 11.9
2009-05-18 16:35:59 51°19.623 2°56.602 72.2 11.9 72 12
2009-05-18 16:36:04 51°19.627 2°56.627 72.6 11.8 76 11.8
2009-05-18 16:36:09 51°19.631 2°56.652 74.1 11.9 73 12.1
2009-05-18 16:36:15 51°19.638 2°56.682 71.6 11.7 72 12
2009-05-18 16:36:19 51°19.64 2°56.702 74.7 11.6 78 12
2009-05-18 16:36:24 51°19.645 2°56.727 74.8 11.7 71 11.8
2009-05-18 16:36:29 51°19.649 2°56.753 73.4 12 77 11.9
2009-05-18 16:36:35 51°19.656 2°56.782 73.6 11.7 71 11.9
2009-05-18 16:36:39 51°19.658 2°56.802 73 11.5 77 11.7
2009-05-18 16:36:44 51°19.663 2°56.828 74.4 12 75 11.7
2009-05-18 16:36:49 51°19.668 2°56.853 72.6 12.1 70 11.9
2009-05-18 16:36:55 51°19.672 2°56.883 73.1 11.5 80 11.9
2009-05-18 16:36:59 51°19.676 2°56.902 75.5 11.5 72 11.7
2009-05-18 16:37:04 51°19.681 2°56.928 73.8 12.2 76 11.7
2009-05-18 16:37:09 51°19.685 2°56.954 74.1 12.2 72 11.9
2009-05-18 16:37:15 51°19.691 2°56.984 72.7 11.5 74 11.8
2009-05-18 16:37:19 51°19.693 2°57.004 75.2 11.8 76 11.6
2009-05-18 16:37:24 51°19.699 2°57.029 74.1 12.2 71 11.8
2009-05-18 16:37:29 51°19.704 2°57.055 72.7 11.9 75 11.8
2009-05-18 16:37:35 51°19.709 2°57.084 73.9 11.6 73 11.7
2009-05-18 16:37:39 51°19.712 2°57.105 74 11.9 75 11.7
2009-05-18 16:37:44 51°19.718 2°57.13 73.8 12 71 11.7
2009-05-18 16:37:49 51°19.722 2°57.155 72.7 11.8 76 11.7
2009-05-18 16:37:55 51°19.727 2°57.186 74.4 11.9 73 11.8
2009-05-18 16:37:59 51°19.732 2°57.206 73 12 72 11.8